Time;durP1;ratioP1;P1;durP2;ratioP2;P2;SDS_P1;SDS_P2;PMS_P1;PMS_P2;Temp;Humidity;BMP_temperature;BMP_pressure;BME280_temperature;BME280_humidity;BME280_pressure;Samples;Min_cycle;Max_cycle;Signal;HPM_P1;HPM_P2
2022/12/10 00:02:13;;;;;;;95.38;44.60;;;2.10;99.90;;;;;;5085687;28;20686;-83
2022/12/10 00:04:40;;;;;;;91.65;44.55;;;2.10;99.90;;;;;;5081728;28;20496;-83
2022/12/10 00:07:14;;;;;;;93.70;46.97;;;2.10;99.90;;;;;;5084244;28;20190;-83
2022/12/10 00:09:43;;;;;;;98.28;46.03;;;2.20;99.90;;;;;;5085991;28;20230;-82
2022/12/10 00:12:13;;;;;;;106.07;45.08;;;2.20;99.90;;;;;;5090036;28;20428;-83
2022/12/10 00:15:18;;;;;;;97.25;43.03;;;2.30;99.90;;;;;;5076527;28;20188;-85
2022/12/10 00:17:56;;;;;;;87.00;43.25;;;2.20;99.90;;;;;;5062411;28;20204;-86
2022/12/10 00:20:32;;;;;;;86.13;42.55;;;2.10;99.90;;;;;;5075252;28;20592;-80
2022/12/10 00:22:59;;;;;;;90.55;43.35;;;2.20;99.90;;;;;;5087887;28;20520;-82
2022/12/10 00:25:26;;;;;;;87.63;41.30;;;2.20;99.90;;;;;;5088063;28;20191;-83
2022/12/10 00:28:01;;;;;;;91.95;42.88;;;2.20;99.90;;;;;;5087258;28;20505;-82
2022/12/10 00:30:30;;;;;;;79.15;41.47;;;2.20;99.90;;;;;;5084591;28;20270;-85
2022/12/10 00:32:59;;;;;;;94.28;42.60;;;2.30;99.90;;;;;;5088063;28;20264;-84
2022/12/10 00:35:34;;;;;;;91.90;45.58;;;2.20;99.90;;;;;;5086803;28;20501;-85
2022/12/10 00:38:07;;;;;;;95.65;40.42;;;2.20;99.90;;;;;;5095040;28;20206;-88
2022/12/10 00:40:35;;;;;;;88.45;41.55;;;2.10;99.90;;;;;;5084913;28;20207;-85
2022/12/10 00:43:05;;;;;;;100.45;43.38;;;2.10;99.90;;;;;;5084842;28;20252;-84
2022/12/10 00:45:33;;;;;;;108.10;45.97;;;2.10;99.90;;;;;;5090459;28;20379;-84
2022/12/10 00:48:00;;;;;;;91.07;42.33;;;2.00;99.90;;;;;;5089775;28;20203;-81
2022/12/10 00:50:29;;;;;;;96.50;45.35;;;2.00;99.90;;;;;;5073691;28;20230;-85
2022/12/10 00:52:57;;;;;;;93.82;42.08;;;2.00;99.90;;;;;;5095977;28;20199;-82
2022/12/10 00:55:25;;;;;;;102.53;42.72;;;2.00;99.90;;;;;;5089290;28;20258;-85
2022/12/10 00:57:54;;;;;;;102.68;43.45;;;2.10;99.90;;;;;;5079158;28;20203;-82
2022/12/10 01:00:23;;;;;;;95.07;42.50;;;2.10;99.90;;;;;;5087793;28;20207;-83
2022/12/10 01:02:50;;;;;;;104.32;41.30;;;2.10;99.90;;;;;;5082265;28;20199;-85
2022/12/10 01:05:17;;;;;;;84.80;42.42;;;2.00;99.90;;;;;;5094308;28;20199;-83
2022/12/10 01:07:46;;;;;;;96.38;40.60;;;2.10;99.90;;;;;;5083630;28;20208;-83
2022/12/10 01:10:16;;;;;;;86.95;44.35;;;2.20;99.90;;;;;;5088659;28;20243;-82
2022/12/10 01:12:45;;;;;;;88.20;38.08;;;2.10;99.90;;;;;;5097783;28;20218;-82
2022/12/10 01:15:15;;;;;;;94.13;41.28;;;2.00;99.90;;;;;;5081720;28;20242;-88
2022/12/10 01:17:43;;;;;;;92.68;38.47;;;2.00;99.90;;;;;;5089037;28;20226;-86
2022/12/10 01:20:13;;;;;;;85.28;40.58;;;2.00;99.90;;;;;;5094258;28;20278;-82
2022/12/10 01:22:40;;;;;;;79.43;37.45;;;2.10;99.90;;;;;;5100534;28;20411;-83
2022/12/10 01:25:08;;;;;;;87.03;38.97;;;2.10;99.90;;;;;;5093236;28;20237;-86
2022/12/10 01:27:36;;;;;;;84.30;38.50;;;2.00;99.90;;;;;;5076812;28;20219;-86
2022/12/10 01:30:04;;;;;;;80.35;36.58;;;2.20;99.90;;;;;;5094552;28;20210;-80
2022/12/10 01:32:31;;;;;;;90.82;39.60;;;2.20;99.90;;;;;;5084818;28;20204;-82
2022/12/10 01:34:59;;;;;;;93.38;41.47;;;2.20;99.90;;;;;;5089053;28;20242;-83
2022/12/10 01:37:27;;;;;;;81.45;42.78;;;2.20;99.90;;;;;;5093059;28;20203;-85
2022/12/10 01:39:57;;;;;;;82.75;41.33;;;2.30;99.90;;;;;;5088098;28;20204;-81
2022/12/10 01:42:24;;;;;;;72.50;38.17;;;2.20;99.90;;;;;;5089292;28;20386;-82
2022/12/10 01:45:00;;;;;;;76.90;34.53;;;2.10;99.90;;;;;;5094718;28;20198;-85
2022/12/10 01:47:33;;;;;;;86.65;38.30;;;2.20;99.90;;;;;;5085846;28;20203;-82
2022/12/10 01:50:00;;;;;;;82.40;38.33;;;2.10;99.90;;;;;;5088615;28;20280;-85
2022/12/10 01:52:32;;;;;;;88.03;36.33;;;2.00;99.90;;;;;;5087434;28;20407;-82
2022/12/10 01:55:06;;;;;;;93.40;38.45;;;2.00;99.90;;;;;;5090484;28;20412;-85
2022/12/10 01:57:36;;;;;;;89.80;40.28;;;2.00;99.90;;;;;;5088917;28;20222;-81
2022/12/10 02:00:06;;;;;;;73.93;34.88;;;2.10;99.90;;;;;;5074934;28;20207;-84
2022/12/10 02:02:50;;;;;;;81.03;35.60;;;2.10;99.90;;;;;;5090574;28;20210;-87
2022/12/10 02:05:43;;;;;;;78.80;38.80;;;2.10;99.90;;;;;;5093065;28;20194;-85
2022/12/10 02:08:25;;;;;;;88.18;39.65;;;2.00;99.90;;;;;;5091496;28;20496;-87
2022/12/10 02:11:44;;;;;;;81.43;37.45;;;2.00;99.90;;;;;;5083461;28;20219;-79
2022/12/10 02:14:29;;;;;;;90.97;41.10;;;1.90;99.90;;;;;;5033062;28;20386;-80
2022/12/10 02:17:01;;;;;;;98.18;39.25;;;1.90;99.90;;;;;;5039572;28;20206;-83
2022/12/10 02:19:52;;;;;;;86.07;40.03;;;1.90;99.90;;;;;;5077452;28;20195;-83
2022/12/10 02:22:27;;;;;;;81.10;35.78;;;1.90;99.90;;;;;;5091354;28;20203;-84
2022/12/10 02:24:55;;;;;;;100.90;40.85;;;1.90;99.90;;;;;;5098941;28;20275;-83
2022/12/10 02:27:37;;;;;;;81.55;39.03;;;2.00;99.90;;;;;;5096393;28;20302;-86
2022/12/10 02:30:24;;;;;;;94.95;40.03;;;2.10;99.90;;;;;;5088852;28;20428;-83
2022/12/10 02:32:53;;;;;;;95.10;40.53;;;2.10;99.90;;;;;;5073941;28;20275;-84
2022/12/10 02:35:26;;;;;;;97.10;38.60;;;2.10;99.90;;;;;;5102710;28;20226;-83
2022/12/10 02:38:11;;;;;;;87.25;39.78;;;2.10;99.90;;;;;;5091228;28;20253;-81
2022/12/10 02:40:45;;;;;;;94.03;38.92;;;2.20;99.90;;;;;;5093310;28;20253;-82
2022/12/10 02:43:17;;;;;;;70.97;36.00;;;2.20;99.90;;;;;;5075607;28;20342;-82
2022/12/10 02:45:45;;;;;;;83.53;36.20;;;2.00;99.90;;;;;;5093367;28;20375;-82
2022/12/10 02:48:16;;;;;;;68.18;34.13;;;2.10;99.90;;;;;;5093375;28;20279;-84
2022/12/10 02:50:45;;;;;;;74.05;39.45;;;2.10;99.90;;;;;;5065757;28;20381;-83
2022/12/10 02:53:12;;;;;;;92.25;38.47;;;2.10;99.90;;;;;;5083364;28;20207;-82
2022/12/10 02:56:06;;;;;;;88.32;36.88;;;2.10;99.90;;;;;;5082411;28;20204;-83
2022/12/10 02:58:48;;;;;;;75.38;34.80;;;2.30;99.90;;;;;;5092605;28;20708;-83
2022/12/10 03:01:24;;;;;;;87.75;38.35;;;2.20;99.90;;;;;;5089075;28;20203;-84
2022/12/10 03:04:01;;;;;;;71.90;34.03;;;2.10;99.90;;;;;;5093386;28;20195;-84
2022/12/10 03:06:42;;;;;;;64.18;32.35;;;2.10;99.90;;;;;;5080809;28;20700;-85
2022/12/10 03:09:22;;;;;;;89.28;34.88;;;2.10;99.90;;;;;;5070902;28;20243;-81
2022/12/10 03:12:03;;;;;;;86.00;38.70;;;2.10;99.90;;;;;;5081613;28;20194;-85
2022/12/10 03:14:34;;;;;;;88.28;38.20;;;2.10;99.90;;;;;;5071109;28;20214;-84
2022/12/10 03:17:05;;;;;;;76.15;35.92;;;2.10;99.90;;;;;;5075126;28;20191;-82
2022/12/10 03:19:36;;;;;;;93.95;38.30;;;2.20;99.90;;;;;;5089974;28;20222;-84
2022/12/10 03:22:08;;;;;;;91.07;41.45;;;2.00;99.90;;;;;;5091704;28;20198;-82
2022/12/10 03:24:39;;;;;;;75.00;35.78;;;2.10;99.90;;;;;;5074178;28;20207;-85
2022/12/10 03:27:11;;;;;;;86.05;38.50;;;2.00;99.90;;;;;;5063673;28;20313;-83
2022/12/10 03:29:49;;;;;;;71.85;32.88;;;2.00;99.90;;;;;;5088519;28;20276;-84
2022/12/10 03:32:21;;;;;;;74.85;37.28;;;2.10;99.90;;;;;;5109019;28;20218;-84
2022/12/10 03:34:53;;;;;;;74.85;38.55;;;2.20;99.90;;;;;;5063691;28;20192;-83
2022/12/10 03:37:26;;;;;;;75.07;33.65;;;2.20;99.90;;;;;;5096854;28;20490;-83
2022/12/10 03:39:54;;;;;;;83.15;38.75;;;2.20;99.90;;;;;;5084447;28;20246;-84
2022/12/10 03:42:23;;;;;;;81.90;37.47;;;2.10;99.90;;;;;;5080332;28;20207;-86
2022/12/10 03:44:54;;;;;;;75.75;36.95;;;2.00;99.90;;;;;;5075492;28;20222;-86
2022/12/10 03:47:25;;;;;;;96.00;41.78;;;1.90;99.90;;;;;;5092974;28;20207;-83
2022/12/10 03:49:52;;;;;;;82.70;37.88;;;1.80;99.90;;;;;;5081897;28;20266;-86
2022/12/10 03:52:20;;;;;;;87.13;38.40;;;1.90;99.90;;;;;;5082759;28;20198;-82
2022/12/10 03:54:56;;;;;;;80.80;37.72;;;1.90;99.90;;;;;;5073868;28;20203;-85
2022/12/10 03:57:24;;;;;;;82.25;37.13;;;1.90;99.90;;;;;;5081613;28;20321;-84
2022/12/10 03:59:51;;;;;;;103.75;41.85;;;1.80;99.90;;;;;;5089020;28;20260;-84
2022/12/10 04:02:22;;;;;;;82.82;37.33;;;2.00;99.90;;;;;;5069868;28;20239;-86
2022/12/10 04:04:54;;;;;;;102.70;44.53;;;1.90;99.90;;;;;;5073489;28;20186;-86
2022/12/10 04:07:23;;;;;;;90.72;37.58;;;1.90;99.90;;;;;;5087543;28;20394;-89
2022/12/10 04:09:52;;;;;;;85.40;37.00;;;1.90;99.90;;;;;;5085898;28;20202;-84
2022/12/10 04:12:19;;;;;;;80.45;36.20;;;1.80;99.90;;;;;;5096620;28;20211;-83
2022/12/10 04:17:35;;;;;;;69.68;35.42;;;2.00;99.90;;;;;;5086212;28;20199;-85
2022/12/10 04:26:51;;;;;;;79.13;34.00;;;1.90;99.90;;;;;;5077122;28;20249;-89
2022/12/10 04:28:44;;;;;;;73.55;36.00;;;1.90;99.90;;;;;;5073043;28;20207;-83
2022/12/10 04:31:11;;;;;;;62.75;31.15;;;2.00;99.90;;;;;;5077315;28;20236;-84
2022/12/10 04:33:38;;;;;;;67.10;33.10;;;2.00;99.90;;;;;;5082097;28;20241;-81
2022/12/10 04:36:08;;;;;;;65.18;30.90;;;2.00;99.90;;;;;;5088173;28;20211;-85
2022/12/10 04:38:36;;;;;;;64.75;30.65;;;2.10;99.90;;;;;;5091044;28;20207;-86
2022/12/10 04:41:15;;;;;;;57.70;33.13;;;2.10;99.90;;;;;;5093741;28;20240;-84
2022/12/10 04:43:45;;;;;;;64.78;33.70;;;2.00;99.90;;;;;;5101943;28;20195;-84
2022/12/10 04:46:12;;;;;;;66.45;31.60;;;2.00;99.90;;;;;;5090378;28;20196;-85
2022/12/10 04:48:40;;;;;;;59.00;29.38;;;2.10;99.90;;;;;;5078703;28;20262;-86
2022/12/10 04:51:08;;;;;;;61.42;31.40;;;1.90;99.90;;;;;;5084533;28;20233;-88
2022/12/10 04:53:35;;;;;;;67.15;32.72;;;1.90;99.90;;;;;;5106976;28;20202;-89
2022/12/10 04:56:05;;;;;;;58.45;27.15;;;1.90;99.90;;;;;;5098863;28;20238;-88
2022/12/10 04:58:33;;;;;;;54.55;26.73;;;1.90;99.90;;;;;;5126826;28;20213;-91
2022/12/10 05:01:08;;;;;;;51.30;27.48;;;1.90;99.90;;;;;;5100462;28;20238;-85
2022/12/10 05:03:36;;;;;;;53.58;28.17;;;2.00;99.90;;;;;;5113206;28;20206;-82
2022/12/10 05:06:10;;;;;;;60.88;32.40;;;2.20;99.90;;;;;;5107109;28;20208;-88
2022/12/10 05:08:40;;;;;;;58.42;33.00;;;2.00;99.90;;;;;;5076573;28;22114;-84
2022/12/10 05:11:19;;;;;;;51.83;28.50;;;1.90;99.90;;;;;;5091624;28;20586;-85
2022/12/10 05:13:55;;;;;;;53.17;29.85;;;1.90;99.90;;;;;;5091944;28;20197;-87
2022/12/10 05:16:34;;;;;;;59.70;30.73;;;1.80;99.90;;;;;;5079974;28;20243;-87
2022/12/10 05:19:11;;;;;;;61.30;30.60;;;1.90;99.90;;;;;;5076628;28;20259;-82
2022/12/10 05:24:25;;;;;;;49.47;28.17;;;1.80;99.90;;;;;;5091850;28;20211;-84
2022/12/10 05:26:54;;;;;;;52.97;28.83;;;1.90;99.90;;;;;;5080998;28;20172;-87
2022/12/10 05:29:21;;;;;;;55.03;31.25;;;1.80;99.90;;;;;;5097241;28;20265;-84
2022/12/10 05:31:49;;;;;;;50.38;27.50;;;1.70;99.90;;;;;;5093430;28;20284;-84
2022/12/10 05:34:19;;;;;;;49.65;29.73;;;1.80;99.90;;;;;;5090236;28;20241;-84
2022/12/10 05:36:46;;;;;;;63.85;29.98;;;1.80;99.90;;;;;;5105248;28;20206;-85
2022/12/10 05:39:13;;;;;;;59.08;29.60;;;2.00;99.90;;;;;;5097922;28;20211;-86
2022/12/10 05:41:43;;;;;;;49.20;28.45;;;1.90;99.90;;;;;;5097207;28;20187;-84
2022/12/10 05:44:10;;;;;;;61.22;30.30;;;1.90;99.90;;;;;;5105411;28;20203;-86
2022/12/10 05:46:38;;;;;;;58.20;28.75;;;2.00;99.90;;;;;;5107779;28;20191;-87
2022/12/10 05:49:07;;;;;;;54.80;26.95;;;1.90;99.90;;;;;;5098294;28;20207;-86
2022/12/10 05:51:36;;;;;;;61.25;29.23;;;1.80;99.90;;;;;;5075997;28;20259;-86
2022/12/10 05:54:05;;;;;;;48.03;26.25;;;1.80;99.90;;;;;;5049297;28;20431;-84
2022/12/10 05:56:34;;;;;;;52.55;26.52;;;1.90;99.90;;;;;;5092654;28;20452;-85
2022/12/10 05:59:03;;;;;;;55.53;29.63;;;2.10;99.90;;;;;;5091912;28;20199;-85
2022/12/10 06:01:42;;;;;;;48.15;28.13;;;1.80;99.90;;;;;;5097261;28;20251;-85
2022/12/10 06:04:12;;;;;;;59.47;31.55;;;1.90;99.90;;;;;;5084387;28;20290;-87
2022/12/10 06:06:40;;;;;;;57.00;28.30;;;1.80;99.90;;;;;;5086069;28;20199;-84
2022/12/10 06:09:12;;;;;;;45.38;28.55;;;2.00;99.90;;;;;;5088214;28;20242;-83
2022/12/10 06:11:41;;;;;;;48.72;27.02;;;2.10;99.90;;;;;;5094226;28;20242;-87
2022/12/10 06:14:14;;;;;;;55.38;25.02;;;2.10;99.90;;;;;;5100628;28;20195;-85
2022/12/10 06:16:42;;;;;;;55.60;31.15;;;1.90;99.90;;;;;;5105122;28;20206;-84
2022/12/10 06:19:11;;;;;;;52.95;29.45;;;1.80;99.90;;;;;;5099636;28;20195;-89
2022/12/10 06:21:38;;;;;;;54.10;28.40;;;1.90;99.90;;;;;;5090688;28;20272;-83
2022/12/10 06:24:05;;;;;;;51.10;27.70;;;1.90;99.90;;;;;;5096788;28;20498;-83
2022/12/10 06:26:37;;;;;;;64.32;33.92;;;1.90;99.90;;;;;;5097525;28;20199;-86
2022/12/10 06:29:06;;;;;;;58.78;29.05;;;2.00;99.90;;;;;;5077426;28;20234;-85
2022/12/10 06:31:35;;;;;;;58.75;26.98;;;2.00;99.90;;;;;;5102072;28;20231;-90
2022/12/10 06:34:05;;;;;;;60.33;31.85;;;2.10;99.90;;;;;;5088109;28;20199;-86
2022/12/10 06:36:33;;;;;;;59.63;29.90;;;1.90;99.90;;;;;;5093174;28;20215;-86
2022/12/10 06:39:01;;;;;;;61.22;30.48;;;1.90;99.90;;;;;;5096741;28;20273;-85
2022/12/10 06:41:32;;;;;;;48.40;26.70;;;1.90;99.90;;;;;;5080310;28;20396;-86
2022/12/10 06:44:00;;;;;;;59.58;30.63;;;1.80;99.90;;;;;;5084212;28;20267;-86
2022/12/10 06:46:29;;;;;;;50.47;28.40;;;2.00;99.90;;;;;;5091674;28;20218;-86
2022/12/10 06:48:59;;;;;;;46.83;29.02;;;1.80;99.90;;;;;;5096917;28;20662;-86
2022/12/10 06:51:28;;;;;;;66.57;31.48;;;1.80;99.90;;;;;;5088170;28;20222;-83
2022/12/10 06:54:08;;;;;;;51.25;29.35;;;1.80;99.90;;;;;;5085076;28;20210;-88
2022/12/10 06:56:40;;;;;;;62.67;30.08;;;1.80;99.90;;;;;;5087031;28;20234;-86
2022/12/10 06:59:07;;;;;;;67.05;31.42;;;1.80;99.90;;;;;;5089257;28;20218;-84
2022/12/10 07:01:38;;;;;;;50.45;29.02;;;1.80;99.90;;;;;;5077587;28;20199;-90
2022/12/10 07:04:19;;;;;;;60.47;30.23;;;1.90;99.90;;;;;;5092826;28;20233;-84
2022/12/10 07:06:51;;;;;;;54.80;28.27;;;1.80;99.90;;;;;;5073669;28;20225;-85
2022/12/10 07:09:23;;;;;;;56.05;33.03;;;1.90;99.90;;;;;;5089384;28;20221;-84
2022/12/10 07:11:55;;;;;;;71.45;34.90;;;1.60;99.90;;;;;;5082206;28;20226;-85
2022/12/10 07:14:24;;;;;;;58.53;33.65;;;1.70;99.90;;;;;;5082396;28;20301;-84
2022/12/10 07:16:51;;;;;;;63.47;32.35;;;1.80;99.90;;;;;;5077328;28;20204;-83
2022/12/10 07:19:19;;;;;;;64.43;32.90;;;1.70;99.90;;;;;;5087276;28;20221;-82
2022/12/10 07:21:46;;;;;;;58.33;33.35;;;1.70;99.90;;;;;;5093551;28;20195;-82
2022/12/10 07:24:17;;;;;;;57.40;30.23;;;1.70;99.90;;;;;;5091773;28;20202;-81
2022/12/10 07:26:48;;;;;;;59.58;32.58;;;1.80;99.90;;;;;;5085140;28;20207;-88
2022/12/10 07:29:29;;;;;;;57.00;31.60;;;1.70;99.90;;;;;;5081775;28;20225;-87
2022/12/10 07:32:08;;;;;;;52.85;29.38;;;1.70;99.90;;;;;;5090580;28;20328;-84
2022/12/10 07:34:54;;;;;;;62.22;32.38;;;1.70;99.90;;;;;;5079406;28;20266;-84
2022/12/10 07:37:21;;;;;;;51.70;29.23;;;1.70;99.90;;;;;;5076843;28;20231;-86
2022/12/10 07:40:01;;;;;;;49.83;30.23;;;1.60;99.90;;;;;;5082385;28;20245;-87
2022/12/10 07:42:28;;;;;;;56.15;30.67;;;1.60;99.90;;;;;;5092542;28;20227;-89
2022/12/10 07:44:57;;;;;;;58.17;28.73;;;1.50;99.90;;;;;;5086221;28;20583;-83
2022/12/10 07:47:24;;;;;;;50.17;25.10;;;1.50;99.90;;;;;;5084862;28;20265;-86
2022/12/10 07:49:53;;;;;;;46.38;26.83;;;1.80;99.90;;;;;;5077867;28;20266;-85
2022/12/10 07:52:24;;;;;;;54.92;31.15;;;1.60;99.90;;;;;;5061786;28;20244;-88
2022/12/10 07:54:52;;;;;;;47.72;27.85;;;1.60;99.90;;;;;;5076868;28;20208;-87
2022/12/10 07:57:20;;;;;;;49.13;26.90;;;1.60;99.90;;;;;;5080512;28;20203;-86
2022/12/10 07:59:53;;;;;;;57.40;28.35;;;1.70;99.90;;;;;;5081449;28;20336;-88
2022/12/10 08:02:30;;;;;;;49.72;26.17;;;1.70;99.90;;;;;;5083701;28;20211;-86
2022/12/10 08:05:16;;;;;;;52.13;27.70;;;1.80;99.90;;;;;;5085576;28;20266;-86
2022/12/10 08:08:00;;;;;;;53.80;28.95;;;1.70;99.90;;;;;;5074305;28;20211;-84
2022/12/10 08:10:51;;;;;;;48.28;27.80;;;1.80;99.90;;;;;;5088258;28;20200;-87
2022/12/10 08:13:31;;;;;;;47.85;25.00;;;1.80;99.90;;;;;;5089335;28;20267;-84
2022/12/10 08:16:14;;;;;;;43.33;26.30;;;1.70;99.90;;;;;;5094093;28;20453;-84
2022/12/10 08:18:49;;;;;;;50.70;28.70;;;1.80;99.90;;;;;;5082745;28;20198;-83
2022/12/10 08:21:25;;;;;;;45.47;28.98;;;2.00;99.90;;;;;;5082958;28;20487;-90
2022/12/10 08:23:54;;;;;;;50.45;26.17;;;1.90;99.90;;;;;;5077082;28;20253;-86
2022/12/10 08:26:32;;;;;;;50.05;26.63;;;1.80;99.90;;;;;;5085979;28;20203;-88
2022/12/10 08:29:03;;;;;;;53.60;29.23;;;1.70;99.90;;;;;;5094846;28;20273;-90
2022/12/10 08:31:31;;;;;;;54.22;29.90;;;1.80;99.90;;;;;;5099256;28;20603;-88
2022/12/10 08:34:14;;;;;;;56.55;26.65;;;1.70;99.90;;;;;;5070109;28;20222;-89
2022/12/10 08:36:45;;;;;;;49.00;28.17;;;1.70;99.90;;;;;;5098868;28;20738;-84
2022/12/10 08:39:16;;;;;;;57.05;29.40;;;1.80;99.90;;;;;;5097809;28;20214;-87
2022/12/10 08:41:46;;;;;;;56.50;28.48;;;1.80;99.90;;;;;;5094790;28;20215;-89
2022/12/10 08:44:18;;;;;;;43.42;24.70;;;1.80;99.90;;;;;;5101767;28;20193;-86
2022/12/10 08:46:49;;;;;;;48.85;27.40;;;1.80;99.90;;;;;;5107139;28;20363;-84
2022/12/10 08:49:16;;;;;;;46.78;25.55;;;2.00;99.90;;;;;;5093894;28;20196;-86
2022/12/10 08:51:47;;;;;;;53.63;29.17;;;2.00;99.90;;;;;;5093362;28;20229;-84
2022/12/10 08:54:16;;;;;;;44.45;25.55;;;1.90;99.90;;;;;;5086406;28;20214;-86
2022/12/10 08:56:45;;;;;;;48.35;26.65;;;1.70;99.90;;;;;;5078872;28;20212;-90
2022/12/10 08:59:13;;;;;;;48.03;26.55;;;1.60;99.90;;;;;;5082059;28;20198;-85
2022/12/10 09:01:44;;;;;;;51.45;28.58;;;1.60;99.90;;;;;;5103152;28;20216;-84
2022/12/10 09:04:12;;;;;;;55.28;29.75;;;1.60;99.90;;;;;;5092496;28;20206;-85
2022/12/10 09:06:50;;;;;;;42.95;26.63;;;1.60;99.90;;;;;;5076352;28;20526;-85
2022/12/10 09:09:20;;;;;;;45.53;26.65;;;1.60;99.90;;;;;;5079912;28;20371;-88
2022/12/10 09:11:50;;;;;;;58.15;29.50;;;1.60;99.90;;;;;;5078578;28;20211;-84
2022/12/10 09:14:21;;;;;;;50.88;29.05;;;1.70;99.90;;;;;;5071009;28;20191;-84
2022/12/10 09:16:49;;;;;;;49.92;29.75;;;1.60;99.90;;;;;;5082608;28;20203;-86
2022/12/10 09:19:17;;;;;;;58.40;27.38;;;1.60;99.90;;;;;;5076366;28;20218;-85
2022/12/10 09:21:47;;;;;;;50.90;30.08;;;1.70;99.90;;;;;;5068481;28;20338;-85
2022/12/10 09:24:21;;;;;;;56.53;30.95;;;1.70;99.90;;;;;;5088109;28;20198;-84
2022/12/10 09:26:51;;;;;;;60.13;31.92;;;1.60;99.90;;;;;;5087971;28;20199;-81
2022/12/10 09:29:24;;;;;;;56.72;28.70;;;1.70;99.90;;;;;;5084010;28;20438;-84
2022/12/10 09:31:53;;;;;;;56.75;28.30;;;1.70;99.90;;;;;;5089149;28;20218;-82
2022/12/10 09:34:21;;;;;;;49.13;31.20;;;1.80;99.90;;;;;;5098108;28;20199;-84
2022/12/10 09:36:51;;;;;;;58.25;30.73;;;1.90;99.90;;;;;;5090968;28;20257;-83
2022/12/10 09:39:20;;;;;;;50.28;28.40;;;1.90;99.90;;;;;;5081088;28;20400;-87
2022/12/10 09:41:51;;;;;;;48.75;29.27;;;1.80;99.90;;;;;;5080657;28;20253;-87
2022/12/10 09:44:41;;;;;;;50.50;27.55;;;1.90;99.90;;;;;;5087213;28;20187;-84
2022/12/10 09:47:10;;;;;;;57.72;29.30;;;2.00;99.90;;;;;;5085393;28;20211;-84
2022/12/10 09:49:59;;;;;;;45.75;28.90;;;2.30;99.90;;;;;;5083967;28;20241;-84
2022/12/10 09:52:31;;;;;;;51.00;28.73;;;2.30;99.90;;;;;;5081117;28;20507;-83
2022/12/10 09:55:03;;;;;;;57.28;30.55;;;2.40;99.90;;;;;;5060948;28;20267;-82
2022/12/10 09:57:42;;;;;;;45.20;27.60;;;2.30;99.90;;;;;;5077248;28;20219;-81
2022/12/10 10:00:37;;;;;;;51.72;28.88;;;2.30;99.90;;;;;;5082916;28;20419;-82
2022/12/10 10:03:14;;;;;;;48.78;29.25;;;2.20;99.90;;;;;;5082853;28;20216;-82
2022/12/10 10:05:50;;;;;;;52.90;31.58;;;2.20;99.90;;;;;;5078437;28;20205;-82
2022/12/10 10:08:37;;;;;;;48.35;25.63;;;2.20;99.90;;;;;;5090195;28;20217;-83
2022/12/10 10:11:17;;;;;;;49.30;27.88;;;2.30;99.90;;;;;;5091687;28;20231;-82
2022/12/10 10:14:24;;;;;;;40.78;25.13;;;2.20;99.90;;;;;;5080879;28;20213;-81
2022/12/10 10:17:07;;;;;;;45.00;28.02;;;2.30;99.90;;;;;;5076495;28;20369;-83
2022/12/10 10:19:44;;;;;;;53.20;30.23;;;2.50;99.90;;;;;;5076997;28;20496;-81
2022/12/10 10:22:16;;;;;;;54.10;29.38;;;2.40;99.90;;;;;;5078311;28;20556;-82
2022/12/10 10:24:46;;;;;;;53.88;27.27;;;2.50;99.90;;;;;;5076391;28;20234;-85
2022/12/10 10:27:22;;;;;;;50.90;28.40;;;2.50;99.90;;;;;;5078444;28;20195;-84
2022/12/10 10:29:52;;;;;;;60.42;31.30;;;2.40;99.90;;;;;;5070512;28;20260;-83
2022/12/10 10:32:39;;;;;;;49.70;30.10;;;2.30;99.90;;;;;;5067288;28;20230;-84
2022/12/10 10:35:06;;;;;;;53.10;31.67;;;2.30;99.90;;;;;;5076443;28;20219;-84
2022/12/10 10:37:34;;;;;;;56.80;30.48;;;2.40;99.90;;;;;;5087602;28;20240;-82
2022/12/10 10:40:02;;;;;;;53.45;28.23;;;2.40;99.90;;;;;;5091663;28;20219;-83
2022/12/10 10:42:40;;;;;;;50.20;29.40;;;2.30;99.90;;;;;;5083498;28;20329;-84
2022/12/10 10:45:44;;;;;;;48.95;26.88;;;2.30;99.90;;;;;;5082906;28;20202;-84
2022/12/10 10:48:29;;;;;;;54.55;29.10;;;2.40;99.90;;;;;;5067724;28;20440;-84
2022/12/10 10:51:25;;;;;;;56.25;30.50;;;2.50;99.90;;;;;;5077906;28;20204;-83
2022/12/10 10:53:55;;;;;;;61.22;32.20;;;2.40;99.90;;;;;;5063387;28;20200;-86
2022/12/10 10:56:26;;;;;;;47.92;29.48;;;2.40;99.90;;;;;;5081265;28;20229;-85
2022/12/10 10:59:05;;;;;;;51.15;29.10;;;2.30;99.90;;;;;;5080722;28;20218;-84
2022/12/10 11:01:54;;;;;;;56.65;28.75;;;2.20;99.90;;;;;;5065471;28;20559;-86
2022/12/10 11:04:52;;;;;;;52.45;29.25;;;2.10;99.90;;;;;;5079243;28;20191;-88
2022/12/10 11:07:39;;;;;;;53.80;29.45;;;2.10;99.90;;;;;;5079397;28;20195;-85
2022/12/10 11:10:24;;;;;;;49.30;28.20;;;2.10;99.90;;;;;;5068724;28;20220;-85
2022/12/10 11:13:18;;;;;;;45.70;28.45;;;2.10;99.90;;;;;;5081680;28;20235;-82
2022/12/10 11:16:18;;;;;;;56.45;30.67;;;2.10;99.90;;;;;;5075901;28;20208;-83
2022/12/10 11:19:04;;;;;;;48.58;27.55;;;2.20;99.90;;;;;;5071970;28;20207;-83
2022/12/10 11:21:33;;;;;;;46.38;27.77;;;2.50;99.90;;;;;;5087585;28;20219;-82
2022/12/10 11:24:11;;;;;;;46.28;27.50;;;2.20;99.90;;;;;;5075487;28;20240;-85
2022/12/10 11:27:09;;;;;;;40.85;23.88;;;2.10;99.90;;;;;;5080887;28;20225;-83
2022/12/10 11:30:29;;;;;;;46.60;27.83;;;2.20;99.90;;;;;;5072013;28;20301;-84
2022/12/10 11:33:20;;;;;;;44.20;26.88;;;2.30;99.90;;;;;;5073942;28;20242;-82
2022/12/10 11:36:25;;;;;;;47.22;28.50;;;2.30;99.90;;;;;;5073421;28;20230;-83
2022/12/10 11:39:26;;;;;;;41.35;25.02;;;2.20;99.90;;;;;;5077881;28;20387;-82
2022/12/10 11:42:12;;;;;;;44.53;26.65;;;2.10;99.90;;;;;;5080828;28;20206;-82
2022/12/10 11:44:54;;;;;;;42.25;27.30;;;2.20;99.90;;;;;;5081614;28;20208;-82
2022/12/10 11:48:04;;;;;;;43.90;27.92;;;2.30;99.90;;;;;;5090113;28;20238;-83
2022/12/10 11:50:51;;;;;;;41.08;25.63;;;2.20;99.90;;;;;;5069904;28;20226;-82
2022/12/10 11:54:04;;;;;;;53.65;27.90;;;2.40;99.90;;;;;;5079152;28;20300;-85
2022/12/10 11:56:47;;;;;;;53.10;27.92;;;2.50;99.90;;;;;;5077713;28;20219;-82
2022/12/10 11:59:24;;;;;;;48.03;27.45;;;2.30;99.90;;;;;;5075550;28;20274;-85
2022/12/10 12:02:23;;;;;;;42.38;27.73;;;2.20;99.90;;;;;;5075753;28;20200;-82
2022/12/10 12:05:12;;;;;;;50.50;28.73;;;2.10;99.90;;;;;;5078411;28;20186;-84
2022/12/10 12:08:14;;;;;;;47.20;27.08;;;2.00;99.90;;;;;;5084038;28;20285;-82
2022/12/10 12:11:11;;;;;;;42.92;27.20;;;2.10;99.90;;;;;;5090696;28;20213;-81
2022/12/10 12:14:02;;;;;;;48.28;28.00;;;2.20;99.90;;;;;;5084054;28;20441;-82
2022/12/10 12:16:37;;;;;;;51.20;30.58;;;2.30;99.90;;;;;;5080584;28;20430;-86
2022/12/10 12:19:19;;;;;;;47.65;29.98;;;2.30;99.90;;;;;;5075034;28;20196;-84
2022/12/10 12:21:49;;;;;;;45.47;29.20;;;2.20;99.90;;;;;;5086674;28;20206;-85
2022/12/10 12:24:48;;;;;;;39.22;25.45;;;2.10;99.90;;;;;;5073126;28;20514;-83
2022/12/10 12:27:42;;;;;;;45.13;26.48;;;2.00;99.90;;;;;;5072413;28;20558;-82
2022/12/10 12:30:23;;;;;;;49.75;29.15;;;1.90;99.90;;;;;;5079599;28;20219;-84
2022/12/10 12:33:31;;;;;;;52.97;30.92;;;1.90;99.90;;;;;;5078600;28;20221;-85
2022/12/10 12:36:09;;;;;;;50.28;28.27;;;1.80;99.90;;;;;;5068292;28;20195;-83
2022/12/10 12:38:48;;;;;;;48.78;30.73;;;1.90;99.90;;;;;;5083653;28;20207;-82
2022/12/10 12:42:11;;;;;;;51.38;29.65;;;1.90;99.90;;;;;;5080689;28;20402;-82
2022/12/10 12:45:03;;;;;;;59.58;32.15;;;2.00;99.90;;;;;;5067374;28;20195;-84
2022/12/10 12:47:58;;;;;;;54.45;32.53;;;2.00;99.90;;;;;;5088831;28;20267;-82
2022/12/10 12:50:47;;;;;;;56.50;32.47;;;2.00;99.90;;;;;;5077634;28;20497;-84
2022/12/10 12:53:23;;;;;;;49.20;29.08;;;2.00;99.90;;;;;;5087526;28;20223;-82
2022/12/10 12:55:53;;;;;;;44.80;30.73;;;2.10;99.90;;;;;;5075827;28;20218;-83
2022/12/10 12:58:48;;;;;;;50.95;27.92;;;2.20;99.90;;;;;;5089079;28;20203;-83
2022/12/10 13:01:28;;;;;;;49.78;29.88;;;2.20;99.90;;;;;;5083269;28;20211;-83
2022/12/10 13:04:00;;;;;;;55.95;35.35;;;2.10;99.90;;;;;;5089741;28;20540;-84
2022/12/10 13:06:34;;;;;;;58.78;33.08;;;1.90;99.90;;;;;;5081542;28;20199;-80
2022/12/10 13:09:18;;;;;;;52.53;30.33;;;1.90;99.90;;;;;;5078859;28;20199;-86
2022/12/10 13:12:06;;;;;;;45.88;29.13;;;1.90;99.90;;;;;;5082747;28;20263;-83
2022/12/10 13:14:57;;;;;;;53.47;30.25;;;2.00;99.90;;;;;;5088373;28;20208;-84
2022/12/10 13:17:36;;;;;;;54.75;33.13;;;2.00;99.90;;;;;;5078006;28;20203;-82
2022/12/10 13:20:50;;;;;;;52.03;31.42;;;2.00;99.90;;;;;;5088068;28;20196;-82
2022/12/10 13:23:27;;;;;;;56.70;32.35;;;2.00;99.90;;;;;;5088101;28;20339;-82
2022/12/10 13:26:00;;;;;;;52.72;32.00;;;2.00;99.90;;;;;;5094424;28;20195;-83
2022/12/10 13:28:34;;;;;;;55.15;31.80;;;2.20;99.90;;;;;;5078284;28;20211;-85
2022/12/10 13:31:30;;;;;;;53.95;31.85;;;2.10;99.90;;;;;;5071235;28;20442;-82